Time;durP1;ratioP1;P1;durP2;ratioP2;P2;SDS_P1;SDS_P2;PMS_P1;PMS_P2;Temp;Humidity;BMP_temperature;BMP_pressure;BME280_temperature;BME280_humidity;BME280_pressure;Samples;Min_cycle;Max_cycle;Signal;HPM_P1;HPM_P2
2022/12/07 00:02:13;;;;;;;7.18;1.13;;;5.50;99.90;;;;;;5098881;28;20099;-86
2022/12/07 00:04:59;;;;;;;5.72;1.08;;;5.50;99.90;;;;;;5077311;28;20055;-77
2022/12/07 00:07:45;;;;;;;8.60;1.63;;;5.40;99.90;;;;;;5060383;28;20079;-80
2022/12/07 00:10:33;;;;;;;8.48;1.60;;;5.30;99.90;;;;;;5075336;28;20411;-83
2022/12/07 00:13:20;;;;;;;7.47;1.27;;;5.30;99.90;;;;;;5091419;28;20060;-83
2022/12/07 00:16:15;;;;;;;8.43;1.10;;;5.30;99.90;;;;;;5074039;28;20438;-82
2022/12/07 00:19:02;;;;;;;16.58;1.73;;;5.30;99.90;;;;;;5092668;28;20131;-81
2022/12/07 00:21:49;;;;;;;12.20;1.33;;;5.30;99.90;;;;;;5060961;28;20064;-88
2022/12/07 00:24:35;;;;;;;13.57;1.58;;;5.30;99.90;;;;;;5090959;28;20056;-82
2022/12/07 00:27:21;;;;;;;12.45;1.40;;;5.30;99.90;;;;;;5091097;28;20406;-80
2022/12/07 00:30:07;;;;;;;8.88;2.17;;;5.40;99.90;;;;;;5090694;28;20105;-89
2022/12/07 00:32:54;;;;;;;7.93;1.55;;;5.40;99.90;;;;;;5073992;28;20052;-80
2022/12/07 00:35:40;;;;;;;7.10;1.73;;;5.30;99.90;;;;;;5075579;28;20047;-81
2022/12/07 00:38:29;;;;;;;11.10;1.40;;;5.30;99.90;;;;;;5071389;28;20105;-89
2022/12/07 00:41:18;;;;;;;13.38;1.90;;;5.20;99.90;;;;;;5090702;28;20052;-84
2022/12/07 00:44:04;;;;;;;8.95;1.42;;;5.20;99.90;;;;;;5076209;28;20469;-85
2022/12/07 00:46:52;;;;;;;10.80;2.03;;;5.10;99.90;;;;;;5072988;28;20062;-90
2022/12/07 00:49:38;;;;;;;9.23;1.50;;;5.10;99.90;;;;;;5062379;28;20526;-85
2022/12/07 00:52:24;;;;;;;15.45;2.67;;;5.10;99.90;;;;;;5089824;28;20134;-82
2022/12/07 00:55:10;;;;;;;19.65;3.38;;;5.10;99.90;;;;;;5090420;28;20060;-79
2022/12/07 00:57:56;;;;;;;13.27;3.03;;;5.30;99.90;;;;;;5070909;28;20040;-86
2022/12/07 01:00:43;;;;;;;18.77;2.70;;;5.30;99.90;;;;;;5069455;28;20511;-88
2022/12/07 01:03:30;;;;;;;18.42;2.42;;;5.40;99.90;;;;;;5074898;28;20122;-87
2022/12/07 01:06:19;;;;;;;16.35;3.47;;;5.40;99.90;;;;;;5069589;28;20059;-78
2022/12/07 01:09:06;;;;;;;13.80;2.15;;;5.40;99.90;;;;;;5069514;28;20063;-87
2022/12/07 01:11:52;;;;;;;14.20;2.60;;;5.40;99.90;;;;;;5069191;28;20567;-87
2022/12/07 01:14:38;;;;;;;14.73;1.83;;;5.40;99.90;;;;;;5070623;28;20080;-87
2022/12/07 01:17:24;;;;;;;10.73;1.65;;;5.40;99.90;;;;;;5072823;28;20052;-85
2022/12/07 01:20:11;;;;;;;15.75;3.08;;;5.40;99.90;;;;;;5070677;28;20056;-82
2022/12/07 01:22:57;;;;;;;6.00;1.15;;;5.30;99.90;;;;;;5069251;28;20393;-83
2022/12/07 01:25:45;;;;;;;11.70;2.13;;;5.30;99.90;;;;;;5069171;28;20044;-85
2022/12/07 01:28:31;;;;;;;5.28;1.35;;;5.30;99.90;;;;;;5067690;28;20122;-88
2022/12/07 01:31:20;;;;;;;8.23;1.35;;;5.30;99.90;;;;;;5068827;28;20083;-88
2022/12/07 01:34:06;;;;;;;11.15;2.33;;;5.30;99.90;;;;;;5072619;28;20048;-87
2022/12/07 01:36:52;;;;;;;7.47;1.02;;;5.30;99.90;;;;;;5067985;28;20835;-81
2022/12/07 01:39:38;;;;;;;11.70;1.35;;;5.30;99.90;;;;;;5068092;28;20179;-80
2022/12/07 01:42:24;;;;;;;14.68;1.63;;;5.30;99.90;;;;;;5068885;28;20052;-89
2022/12/07 01:45:35;;;;;;;12.27;2.45;;;5.40;99.90;;;;;;5067978;28;20057;-80
2022/12/07 01:48:27;;;;;;;15.07;1.83;;;5.40;99.90;;;;;;5073569;28;20052;-88
2022/12/07 01:51:14;;;;;;;20.55;2.63;;;5.30;99.90;;;;;;5071290;28;20119;-87
2022/12/07 01:54:01;;;;;;;12.63;2.08;;;5.30;99.90;;;;;;5072833;28;20055;-81
2022/12/07 01:56:52;;;;;;;12.35;1.45;;;5.30;99.90;;;;;;5073440;28;20407;-79
2022/12/07 01:59:39;;;;;;;12.63;1.45;;;5.40;99.90;;;;;;5071378;28;20531;-80
2022/12/07 02:02:36;;;;;;;8.05;1.40;;;5.30;99.90;;;;;;5076986;28;20503;-83
2022/12/07 02:05:25;;;;;;;10.30;1.33;;;5.40;99.90;;;;;;5071320;28;20053;-83
2022/12/07 02:08:13;;;;;;;7.15;1.13;;;5.50;99.90;;;;;;5071081;28;20113;-79
2022/12/07 02:11:01;;;;;;;12.55;1.83;;;5.40;99.90;;;;;;5072239;28;20045;-78
2022/12/07 02:13:47;;;;;;;10.35;1.60;;;5.30;99.90;;;;;;5071043;28;20045;-80
2022/12/07 02:17:03;;;;;;;12.95;1.42;;;5.20;99.90;;;;;;5072214;28;20063;-82
2022/12/07 02:20:15;;;;;;;7.38;0.93;;;5.10;99.90;;;;;;5053400;28;20579;-86
2022/12/07 02:23:26;;;;;;;5.88;1.83;;;5.00;99.90;;;;;;5058128;28;20123;-86
2022/12/07 02:26:47;;;;;;;9.50;1.20;;;5.00;99.90;;;;;;5073611;28;20402;-79
2022/12/07 02:30:00;;;;;;;10.38;2.25;;;5.00;99.90;;;;;;5057185;28;20389;-76
2022/12/07 02:32:57;;;;;;;14.48;1.85;;;5.10;99.90;;;;;;5072999;28;20063;-78
2022/12/07 02:35:50;;;;;;;17.98;1.55;;;5.10;99.90;;;;;;5070013;28;20437;-82
2022/12/07 02:38:50;;;;;;;12.02;1.85;;;5.00;99.90;;;;;;5071258;28;20040;-79
2022/12/07 02:41:44;;;;;;;10.40;1.67;;;4.90;99.90;;;;;;5071335;28;20404;-83
2022/12/07 02:44:32;;;;;;;11.07;1.67;;;4.90;99.90;;;;;;5071858;28;20067;-84
2022/12/07 02:47:21;;;;;;;23.42;2.85;;;4.80;99.90;;;;;;5071975;28;20582;-81
2022/12/07 02:50:08;;;;;;;17.88;2.50;;;4.90;99.90;;;;;;5071501;28;20153;-83
2022/12/07 02:52:54;;;;;;;22.00;2.45;;;5.00;99.90;;;;;;5071711;28;20044;-86
2022/12/07 02:55:42;;;;;;;10.70;1.63;;;5.00;99.90;;;;;;5069831;28;20041;-83
2022/12/07 02:59:00;;;;;;;13.70;1.40;;;5.00;99.90;;;;;;5072429;28;20049;-81
2022/12/07 03:02:30;;;;;;;13.43;1.50;;;5.00;99.90;;;;;;5090575;28;20100;-85
2022/12/07 03:05:36;;;;;;;10.90;2.17;;;5.00;99.90;;;;;;5039974;28;20087;-86
2022/12/07 03:08:41;;;;;;;10.07;2.15;;;4.90;99.90;;;;;;5074578;28;20052;-81
2022/12/07 03:11:40;;;;;;;9.80;1.65;;;4.90;99.90;;;;;;5074343;28;20044;-87
2022/12/07 03:14:34;;;;;;;13.13;1.50;;;4.90;99.90;;;;;;5076854;28;20131;-86
2022/12/07 03:17:26;;;;;;;11.95;1.80;;;4.80;99.90;;;;;;5091603;28;20052;-81
2022/12/07 03:20:15;;;;;;;17.08;2.30;;;4.80;99.90;;;;;;5073248;28;20510;-78
2022/12/07 03:23:06;;;;;;;16.75;2.65;;;4.80;99.90;;;;;;5093116;28;20075;-80
2022/12/07 03:25:56;;;;;;;13.88;2.28;;;4.80;99.90;;;;;;5059697;28;20052;-89
2022/12/07 03:28:49;;;;;;;11.40;1.50;;;4.90;99.90;;;;;;5092670;28;20048;-84
2022/12/07 03:31:40;;;;;;;12.60;2.25;;;5.00;99.90;;;;;;5074795;28;20056;-88
2022/12/07 03:35:18;;;;;;;9.82;2.58;;;4.90;99.90;;;;;;5091326;28;20039;-88
2022/12/07 03:38:29;;;;;;;9.70;1.70;;;4.90;99.90;;;;;;5059043;28;20484;-81
2022/12/07 03:41:26;;;;;;;14.38;1.85;;;5.00;99.90;;;;;;5090813;28;20056;-80
2022/12/07 03:44:14;;;;;;;20.73;1.70;;;5.00;99.90;;;;;;5074144;28;20420;-82
2022/12/07 03:47:03;;;;;;;15.57;2.22;;;5.00;99.90;;;;;;5091783;28;20048;-78
2022/12/07 03:49:52;;;;;;;11.82;2.22;;;5.00;99.90;;;;;;5073815;28;20126;-86
2022/12/07 03:52:47;;;;;;;9.60;1.90;;;5.00;99.90;;;;;;5092457;28;20514;-77
2022/12/07 03:55:37;;;;;;;9.30;1.88;;;5.00;99.90;;;;;;5090001;28;20058;-85
2022/12/07 03:58:25;;;;;;;8.95;1.73;;;5.10;99.90;;;;;;5072874;28;20054;-87
2022/12/07 04:01:11;;;;;;;13.05;1.80;;;5.00;99.90;;;;;;5073262;28;20054;-85
2022/12/07 04:03:57;;;;;;;19.60;3.40;;;5.10;99.90;;;;;;5089795;28;20055;-87
2022/12/07 04:06:44;;;;;;;18.38;5.00;;;5.10;99.90;;;;;;5091733;28;20163;-82
2022/12/07 04:09:30;;;;;;;11.93;2.05;;;5.10;99.90;;;;;;5091503;28;20124;-80
2022/12/07 04:12:16;;;;;;;19.08;2.55;;;5.10;99.90;;;;;;5090697;28;20044;-86
2022/12/07 04:15:03;;;;;;;13.65;2.72;;;5.20;99.90;;;;;;5093103;28;20063;-81
2022/12/07 04:17:50;;;;;;;8.85;1.70;;;5.10;99.90;;;;;;5090779;28;20082;-80
2022/12/07 04:20:36;;;;;;;12.48;1.63;;;5.10;99.90;;;;;;5074039;28;20063;-78
2022/12/07 04:23:22;;;;;;;14.63;1.70;;;5.00;99.90;;;;;;5058593;28;20135;-85
2022/12/07 04:26:08;;;;;;;18.52;2.10;;;5.00;99.90;;;;;;5091900;28;20047;-80
2022/12/07 04:28:54;;;;;;;9.95;2.53;;;4.90;99.90;;;;;;5092811;28;20052;-85
2022/12/07 04:31:41;;;;;;;10.93;1.63;;;4.90;99.90;;;;;;5073919;28;20055;-78
2022/12/07 04:34:27;;;;;;;8.93;2.25;;;5.00;99.90;;;;;;5091390;28;20040;-87
2022/12/07 04:37:13;;;;;;;13.10;1.73;;;5.00;99.90;;;;;;5076586;28;20043;-84
2022/12/07 04:39:59;;;;;;;7.35;1.30;;;5.00;99.90;;;;;;5072766;28;20533;-81
2022/12/07 04:42:45;;;;;;;10.13;1.95;;;5.00;99.90;;;;;;5072580;28;20052;-83
2022/12/07 04:45:33;;;;;;;13.73;1.85;;;5.00;99.90;;;;;;5075898;28;20047;-84
2022/12/07 04:48:19;;;;;;;11.75;1.60;;;4.90;99.90;;;;;;5059120;28;20488;-87
2022/12/07 04:51:05;;;;;;;11.68;1.90;;;4.90;99.90;;;;;;5074315;28;20106;-86
2022/12/07 04:53:52;;;;;;;18.17;2.53;;;4.90;99.90;;;;;;5076226;28;20446;-85
2022/12/07 04:56:39;;;;;;;10.25;1.73;;;4.80;99.90;;;;;;5072540;28;20056;-87
2022/12/07 04:59:25;;;;;;;19.25;2.72;;;4.80;99.90;;;;;;5077565;28;20060;-84
2022/12/07 05:02:12;;;;;;;12.70;1.65;;;4.80;99.90;;;;;;5093559;28;20040;-86
2022/12/07 05:04:58;;;;;;;10.25;1.73;;;4.90;99.90;;;;;;5071970;28;20044;-83
2022/12/07 05:07:44;;;;;;;8.25;1.73;;;4.90;99.90;;;;;;5073376;28;20048;-81
2022/12/07 05:10:30;;;;;;;15.95;2.28;;;4.90;99.90;;;;;;5090508;28;20044;-81
2022/12/07 05:13:16;;;;;;;16.17;1.90;;;4.90;99.90;;;;;;5072420;28;20578;-82
2022/12/07 05:16:03;;;;;;;14.00;1.75;;;4.90;99.90;;;;;;5094890;28;20515;-85
2022/12/07 05:18:49;;;;;;;12.40;1.75;;;4.90;99.90;;;;;;5092984;28;20040;-80
2022/12/07 05:21:36;;;;;;;17.67;2.40;;;4.90;99.90;;;;;;5095015;28;20056;-81
2022/12/07 05:24:22;;;;;;;13.48;1.90;;;4.80;99.90;;;;;;5078254;28;20098;-82
2022/12/07 05:27:08;;;;;;;14.48;2.45;;;4.80;99.90;;;;;;5103379;28;20054;-81
2022/12/07 05:29:55;;;;;;;10.50;1.92;;;4.80;99.90;;;;;;5100398;28;20180;-78
2022/12/07 05:32:41;;;;;;;10.38;2.13;;;4.70;99.90;;;;;;5080034;28;20052;-79
2022/12/07 05:35:27;;;;;;;12.00;2.38;;;4.60;99.90;;;;;;5095584;28;20627;-86
2022/12/07 05:38:13;;;;;;;24.17;3.15;;;4.60;99.90;;;;;;5077993;28;20056;-76
2022/12/07 05:41:04;;;;;;;14.98;2.33;;;4.60;99.90;;;;;;5094286;28;20048;-79
2022/12/07 05:43:50;;;;;;;15.65;1.83;;;4.70;99.90;;;;;;5094565;28;20104;-81
2022/12/07 05:46:36;;;;;;;16.35;3.00;;;4.70;99.90;;;;;;5095058;28;20135;-78
2022/12/07 05:49:22;;;;;;;16.55;2.72;;;4.60;99.90;;;;;;5094826;28;20059;-83
2022/12/07 05:52:09;;;;;;;14.10;1.88;;;4.60;99.90;;;;;;5076973;28;20056;-83
2022/12/07 05:54:55;;;;;;;15.38;1.92;;;4.50;99.90;;;;;;5077007;28;20330;-78
2022/12/07 05:59:22;;;;;;;13.20;1.50;;;4.50;99.90;;;;;;5076304;28;20063;-78
2022/12/07 06:00:47;;;;;;;9.88;1.30;;;4.40;99.90;;;;;;5075329;28;20056;-79
2022/12/07 06:03:33;;;;;;;8.45;1.27;;;4.50;99.90;;;;;;5093364;28;20052;-83
2022/12/07 06:06:19;;;;;;;12.85;1.73;;;4.40;99.90;;;;;;5094134;28;20048;-85
2022/12/07 06:09:06;;;;;;;10.35;1.30;;;4.40;99.90;;;;;;5047857;28;20145;-84
2022/12/07 06:14:57;;;;;;;11.75;1.60;;;4.30;99.90;;;;;;5093683;28;20093;-77
2022/12/07 06:17:43;;;;;;;14.60;1.85;;;4.20;99.90;;;;;;5075400;28;20407;-80
2022/12/07 06:20:30;;;;;;;9.10;1.38;;;4.20;99.90;;;;;;5075248;28;20051;-81
2022/12/07 06:23:16;;;;;;;9.38;2.45;;;4.20;99.90;;;;;;5093142;28;20044;-76
2022/12/07 06:26:02;;;;;;;13.82;1.85;;;4.20;99.90;;;;;;5078292;28;20059;-84
2022/12/07 06:28:48;;;;;;;13.90;1.65;;;4.20;99.90;;;;;;5062834;28;20048;-76
2022/12/07 06:31:36;;;;;;;12.30;2.22;;;4.20;99.90;;;;;;5075079;28;20135;-78
2022/12/07 06:34:23;;;;;;;22.60;4.53;;;4.40;99.90;;;;;;5093248;28;20153;-79
2022/12/07 06:37:09;;;;;;;15.90;2.90;;;4.60;99.90;;;;;;5092667;28;20051;-78
2022/12/07 06:39:56;;;;;;;9.85;1.80;;;4.70;99.90;;;;;;5060356;28;20502;-78
2022/12/07 06:42:42;;;;;;;13.55;3.22;;;4.70;99.90;;;;;;5095439;28;20135;-78
2022/12/07 06:45:28;;;;;;;10.77;1.73;;;4.70;99.90;;;;;;5074817;28;20529;-77
2022/12/07 06:48:14;;;;;;;14.68;2.83;;;4.60;99.90;;;;;;5092931;28;20060;-80
2022/12/07 06:51:01;;;;;;;12.30;1.92;;;4.60;99.90;;;;;;5074374;28;20162;-87
2022/12/07 06:53:47;;;;;;;24.75;3.15;;;4.50;99.90;;;;;;5074578;28;20593;-80
2022/12/07 06:56:38;;;;;;;11.93;1.65;;;4.40;99.90;;;;;;5064799;28;20109;-81
2022/12/07 06:59:24;;;;;;;9.15;1.92;;;4.30;99.90;;;;;;5076623;28;20136;-78
2022/12/07 07:02:10;;;;;;;11.38;1.70;;;4.30;99.90;;;;;;5061440;28;20484;-80
2022/12/07 07:04:57;;;;;;;8.07;1.65;;;4.30;99.90;;;;;;5074695;28;20063;-77
2022/12/07 07:07:43;;;;;;;16.13;1.90;;;4.30;99.90;;;;;;5073406;28;20491;-78
2022/12/07 07:10:29;;;;;;;12.50;1.92;;;4.30;99.90;;;;;;5096252;28;20040;-87
2022/12/07 07:13:15;;;;;;;8.73;1.63;;;4.30;99.90;;;;;;5078352;28;20079;-81
2022/12/07 07:16:02;;;;;;;11.27;1.60;;;4.30;99.90;;;;;;5075428;28;20526;-89
2022/12/07 07:18:48;;;;;;;16.25;3.08;;;4.30;99.90;;;;;;5091635;28;20118;-81
2022/12/07 07:21:36;;;;;;;15.52;2.47;;;4.40;99.90;;;;;;5074180;28;20049;-83
2022/12/07 07:24:22;;;;;;;12.25;2.60;;;4.40;99.90;;;;;;5095608;28;20044;-82
2022/12/07 07:27:08;;;;;;;16.83;2.58;;;4.50;99.90;;;;;;5073611;28;20051;-86
2022/12/07 07:29:54;;;;;;;20.23;2.45;;;4.60;99.90;;;;;;5092984;28;20044;-80
2022/12/07 07:32:40;;;;;;;15.88;2.70;;;4.70;99.90;;;;;;5091023;28;20102;-86
2022/12/07 07:35:29;;;;;;;14.40;2.45;;;4.80;99.90;;;;;;5092399;28;20116;-80
2022/12/07 07:38:15;;;;;;;12.95;2.03;;;4.80;99.90;;;;;;5074188;28;20052;-83
2022/12/07 07:41:01;;;;;;;13.55;1.75;;;4.70;99.90;;;;;;5091615;28;20480;-84
2022/12/07 07:43:47;;;;;;;9.32;1.83;;;4.80;99.90;;;;;;5078876;28;20113;-85
2022/12/07 07:46:33;;;;;;;21.85;2.45;;;4.80;99.90;;;;;;5092424;28;20056;-82
2022/12/07 07:49:20;;;;;;;14.20;2.53;;;4.70;99.90;;;;;;5090776;28;20048;-84
2022/12/07 07:52:06;;;;;;;12.20;1.70;;;4.80;99.90;;;;;;5073788;28;20079;-86
2022/12/07 07:54:52;;;;;;;49.03;5.13;;;4.80;99.90;;;;;;5073271;28;20453;-78
2022/12/07 07:57:39;;;;;;;10.32;1.38;;;4.80;99.90;;;;;;5091218;28;20046;-81
2022/12/07 08:00:26;;;;;;;13.55;2.75;;;4.80;99.90;;;;;;5094476;28;20060;-85
2022/12/07 08:03:12;;;;;;;14.10;2.10;;;4.80;99.90;;;;;;5073595;28;20056;-79
2022/12/07 08:05:58;;;;;;;14.52;2.92;;;4.90;99.90;;;;;;5073622;28;20050;-78
2022/12/07 08:08:44;;;;;;;14.93;2.45;;;4.90;99.90;;;;;;5091591;28;20047;-86
2022/12/07 08:11:31;;;;;;;16.85;1.83;;;4.90;99.90;;;;;;5091355;28;20044;-84
2022/12/07 08:14:17;;;;;;;13.70;2.00;;;4.90;99.90;;;;;;5091553;28;20074;-81
2022/12/07 08:17:03;;;;;;;12.05;1.42;;;5.00;99.90;;;;;;5072718;28;20138;-80
2022/12/07 08:19:50;;;;;;;10.35;1.65;;;5.00;99.90;;;;;;5095062;28;20044;-80
2022/12/07 08:22:36;;;;;;;19.05;2.28;;;5.10;99.90;;;;;;5072852;28;20086;-78
2022/12/07 08:25:23;;;;;;;9.27;1.00;;;5.20;99.90;;;;;;5073132;28;20568;-81
2022/12/07 08:28:09;;;;;;;7.95;1.23;;;5.10;99.90;;;;;;5091845;28;20044;-81
2022/12/07 08:31:00;;;;;;;5.78;1.08;;;5.00;99.90;;;;;;5090366;28;20056;-82
2022/12/07 08:33:48;;;;;;;7.53;1.05;;;5.00;99.90;;;;;;5095414;28;20055;-79
2022/12/07 08:36:36;;;;;;;9.65;1.27;;;4.90;99.90;;;;;;5090938;28;20094;-81
2022/12/07 08:39:22;;;;;;;9.20;1.40;;;4.90;99.90;;;;;;5058616;28;20415;-81
2022/12/07 08:42:08;;;;;;;4.82;0.98;;;4.80;99.90;;;;;;5073131;28;20048;-77
2022/12/07 08:44:57;;;;;;;9.30;1.30;;;4.80;99.90;;;;;;5064614;28;20047;-84
2022/12/07 08:47:58;;;;;;;10.05;1.58;;;4.80;99.90;;;;;;5090090;28;20495;-85
2022/12/07 08:50:44;;;;;;;7.20;1.05;;;4.80;99.90;;;;;;5096331;28;20144;-77
2022/12/07 08:53:32;;;;;;;9.85;0.95;;;4.90;99.90;;;;;;5090445;28;20048;-85
2022/12/07 08:56:19;;;;;;;7.15;1.33;;;4.90;99.90;;;;;;5091174;28;20044;-83
2022/12/07 08:59:06;;;;;;;8.07;1.50;;;4.90;99.90;;;;;;5075428;28;20121;-85
2022/12/07 09:01:52;;;;;;;6.32;1.23;;;5.00;99.90;;;;;;5077431;28;20071;-86
2022/12/07 09:04:38;;;;;;;9.25;2.28;;;5.00;99.90;;;;;;5096730;28;20044;-81
2022/12/07 09:07:26;;;;;;;12.40;1.13;;;5.10;99.90;;;;;;5098026;28;20055;-78
2022/12/07 09:10:12;;;;;;;11.57;1.98;;;5.10;99.90;;;;;;5093671;28;20067;-80
2022/12/07 09:13:00;;;;;;;16.27;1.90;;;5.20;99.90;;;;;;5076793;28;20052;-81
2022/12/07 09:15:46;;;;;;;6.85;1.58;;;5.30;99.90;;;;;;5075609;28;20109;-86
2022/12/07 09:18:33;;;;;;;11.82;2.00;;;5.30;99.90;;;;;;5061178;28;20055;-86
2022/12/07 09:21:19;;;;;;;11.50;2.88;;;5.40;99.90;;;;;;5091451;28;20044;-88
2022/12/07 09:24:06;;;;;;;9.77;2.90;;;5.40;99.90;;;;;;5077132;28;20056;-85
2022/12/07 09:26:52;;;;;;;20.67;2.17;;;5.40;99.90;;;;;;5090256;28;20105;-84
2022/12/07 09:29:38;;;;;;;13.73;2.00;;;5.50;99.90;;;;;;5073155;28;20052;-83
2022/12/07 09:32:24;;;;;;;11.18;2.67;;;5.50;99.90;;;;;;5092424;28;20394;-86
2022/12/07 09:35:10;;;;;;;11.98;2.28;;;5.70;99.90;;;;;;5091308;28;20036;-83
2022/12/07 09:37:57;;;;;;;20.15;3.75;;;6.00;99.90;;;;;;5078126;28;20093;-84
2022/12/07 09:40:43;;;;;;;11.10;2.63;;;6.40;99.90;;;;;;5091211;28;20055;-75
2022/12/07 09:43:30;;;;;;;13.00;1.63;;;6.60;99.90;;;;;;5089353;28;20483;-83
2022/12/07 09:46:19;;;;;;;10.45;1.55;;;7.00;99.90;;;;;;5091177;28;20090;-87
2022/12/07 09:49:09;;;;;;;13.93;1.58;;;7.20;99.90;;;;;;5070908;28;20067;-84
2022/12/07 09:52:08;;;;;;;11.02;2.53;;;7.50;99.90;;;;;;5090587;28;20060;-86
2022/12/07 09:54:54;;;;;;;11.32;1.92;;;7.40;99.90;;;;;;5092481;28;20327;-85
2022/12/07 09:57:42;;;;;;;15.07;2.22;;;7.30;99.90;;;;;;5092262;28;20101;-86
2022/12/07 10:00:30;;;;;;;13.05;2.50;;;7.30;99.90;;;;;;5089959;28;20561;-85
2022/12/07 10:03:16;;;;;;;13.27;1.58;;;7.20;99.90;;;;;;5071818;28;20048;-87
2022/12/07 10:06:03;;;;;;;8.10;1.65;;;7.10;99.90;;;;;;5090216;28;20056;-82
2022/12/07 10:08:50;;;;;;;10.48;1.70;;;7.00;99.90;;;;;;5073202;28;20095;-76
2022/12/07 10:12:01;;;;;;;9.30;1.55;;;7.00;99.90;;;;;;5093983;28;20079;-81
2022/12/07 10:14:54;;;;;;;9.73;1.63;;;7.00;99.90;;;;;;5094054;28;20147;-76
2022/12/07 10:17:47;;;;;;;15.55;2.10;;;6.90;99.90;;;;;;5093856;28;20051;-79
2022/12/07 10:20:33;;;;;;;10.75;1.65;;;6.80;99.90;;;;;;5094650;28;20096;-87
2022/12/07 10:23:19;;;;;;;10.38;2.00;;;6.70;99.90;;;;;;5061349;28;20048;-78
2022/12/07 10:26:40;;;;;;;7.50;1.70;;;6.40;99.90;;;;;;5062520;28;20082;-82
2022/12/07 10:29:34;;;;;;;7.18;1.73;;;6.00;99.90;;;;;;5044755;28;20056;-84
2022/12/07 10:32:20;;;;;;;6.65;0.90;;;5.80;99.90;;;;;;5074068;28;20767;-85
2022/12/07 10:35:28;;;;;;;7.15;1.25;;;5.80;99.90;;;;;;5078499;28;20059;-83
2022/12/07 10:38:16;;;;;;;5.55;0.90;;;5.70;99.90;;;;;;5093628;28;20047;-82
2022/12/07 10:41:05;;;;;;;5.03;1.17;;;5.80;99.90;;;;;;5097635;28;20166;-77
2022/12/07 10:43:54;;;;;;;5.53;0.85;;;5.90;99.90;;;;;;5075001;28;20551;-82
2022/12/07 10:46:59;;;;;;;13.88;1.52;;;6.00;99.90;;;;;;5094253;28;20075;-82
2022/12/07 10:49:57;;;;;;;12.23;2.60;;;6.10;99.90;;;;;;5074604;28;20075;-80
2022/12/07 10:52:58;;;;;;;12.40;2.08;;;6.30;99.90;;;;;;5074641;28;20102;-79
2022/12/07 10:55:53;;;;;;;28.90;2.28;;;6.40;99.90;;;;;;5092881;28;20109;-78
2022/12/07 10:59:01;;;;;;;14.70;2.03;;;6.50;99.90;;;;;;5082413;28;20463;-83
2022/12/07 11:01:54;;;;;;;11.90;2.33;;;6.80;99.90;;;;;;5076747;28;20150;-79
2022/12/07 11:05:11;;;;;;;9.05;1.67;;;7.10;99.90;;;;;;5078926;28;20539;-86
2022/12/07 11:08:22;;;;;;;11.05;1.90;;;7.50;99.90;;;;;;5093855;28;20044;-76
2022/12/07 11:11:32;;;;;;;11.88;1.50;;;7.70;99.90;;;;;;5062028;28;20475;-77
2022/12/07 11:14:49;;;;;;;7.00;1.08;;;8.00;99.90;;;;;;5092604;28;20150;-76
2022/12/07 11:17:59;;;;;;;7.20;1.30;;;8.30;99.90;;;;;;5098142;28;20549;-80
2022/12/07 11:21:13;;;;;;;6.85;1.35;;;8.40;99.90;;;;;;5091996;28;20106;-83
2022/12/07 11:24:11;;;;;;;5.88;1.23;;;8.50;99.90;;;;;;5107756;28;20048;-84
2022/12/07 11:27:35;;;;;;;7.22;1.23;;;8.60;99.90;;;;;;5110015;28;20069;-78
2022/12/07 11:30:33;;;;;;;13.30;1.75;;;8.60;99.90;;;;;;5106088;28;20044;-78
2022/12/07 11:33:34;;;;;;;12.93;1.85;;;8.60;99.90;;;;;;5100971;28;20062;-84
2022/12/07 11:36:23;;;;;;;15.15;2.38;;;8.50;99.90;;;;;;5095389;28;20055;-83
2022/12/07 11:39:18;;;;;;;8.68;1.30;;;8.50;99.90;;;;;;5093006;28;20044;-79
2022/12/07 11:42:11;;;;;;;8.63;2.42;;;8.30;99.90;;;;;;5092200;28;20055;-85
2022/12/07 11:45:19;;;;;;;15.23;2.70;;;8.00;99.90;;;;;;5091575;28;20142;-83
2022/12/07 11:48:17;;;;;;;9.18;1.98;;;7.80;99.90;;;;;;5091512;28;20056;-84
2022/12/07 11:51:06;;;;;;;6.32;1.38;;;7.60;99.90;;;;;;5074230;28;20088;-79
2022/12/07 11:54:18;;;;;;;14.05;3.67;;;7.30;99.90;;;;;;5076503;28;20048;-80
2022/12/07 11:57:13;;;;;;;14.18;2.10;;;7.10;99.90;;;;;;5090164;28;20055;-83
2022/12/07 12:00:03;;;;;;;;;;;7.00;99.90;;;;;;5091988;28;20048;-84
2022/12/07 12:03:01;;;;;;;15.40;2.08;;;6.90;99.90;;;;;;5092557;28;19920;-83
2022/12/07 12:05:47;;;;;;;16.02;2.80;;;6.80;99.90;;;;;;5077773;28;20094;-84
2022/12/07 12:08:40;;;;;;;10.02;1.45;;;6.80;99.90;;;;;;5090444;28;20500;-78
2022/12/07 12:11:33;;;;;;;12.45;1.52;;;6.60;99.90;;;;;;5095666;28;20051;-83
2022/12/07 12:14:47;;;;;;;15.60;1.40;;;6.40;99.90;;;;;;5091206;28;20123;-82
2022/12/07 12:17:57;;;;;;;4.82;0.90;;;6.30;99.90;;;;;;5092702;28;20056;-81
2022/12/07 12:20:51;;;;;;;7.05;0.90;;;6.40;99.90;;;;;;5092187;28;20462;-81
2022/12/07 12:23:44;;;;;;;8.35;1.50;;;6.70;99.90;;;;;;5072347;28;20407;-80
2022/12/07 12:26:33;;;;;;;5.03;0.85;;;6.90;99.90;;;;;;5090245;28;20130;-83
2022/12/07 12:29:37;;;;;;;8.07;1.38;;;7.00;99.90;;;;;;5095565;28;20056;-83
2022/12/07 12:32:40;;;;;;;8.43;1.13;;;7.00;99.90;;;;;;5091492;28;20113;-83
2022/12/07 12:35:33;;;;;;;5.55;1.52;;;6.80;99.90;;;;;;5072721;28;20430;-87
2022/12/07 12:38:31;;;;;;;23.98;3.42;;;6.80;99.90;;;;;;5059193;28;20146;-83
2022/12/07 12:41:36;;;;;;;7.47;1.40;;;6.70;99.90;;;;;;5089661;28;20055;-81
2022/12/07 12:44:22;;;;;;;7.85;1.20;;;7.00;99.90;;;;;;5090382;28;20078;-81
2022/12/07 12:47:51;;;;;;;6.50;1.13;;;6.90;99.90;;;;;;5090944;28;20054;-77
2022/12/07 12:50:38;;;;;;;8.88;1.05;;;7.10;99.90;;;;;;5093626;28;20098;-79
2022/12/07 12:53:26;;;;;;;8.35;1.60;;;7.20;99.90;;;;;;5090333;28;20392;-78
2022/12/07 12:56:41;;;;;;;8.82;0.98;;;7.10;99.90;;;;;;5071971;28;20044;-77
2022/12/07 12:59:42;;;;;;;13.82;1.55;;;6.80;99.90;;;;;;5090512;28;20117;-80
2022/12/07 13:02:31;;;;;;;14.50;1.20;;;6.70;99.90;;;;;;5092078;28;20570;-78
2022/12/07 13:05:29;;;;;;;9.35;1.17;;;6.30;99.90;;;;;;5072423;28;20534;-80
2022/12/07 13:08:21;;;;;;;6.25;1.10;;;6.10;99.90;;;;;;5090049;28;20040;-78
2022/12/07 13:11:25;;;;;;;6.43;0.93;;;6.00;99.90;;;;;;5089376;28;20056;-81
2022/12/07 13:14:40;;;;;;;6.47;0.95;;;6.10;99.90;;;;;;5090212;28;20067;-77
2022/12/07 13:17:32;;;;;;;5.32;1.00;;;6.00;99.90;;;;;;5072242;28;20055;-79
2022/12/07 13:20:43;;;;;;;8.70;1.23;;;6.00;99.90;;;;;;5080798;28;20048;-81
2022/12/07 13:23:44;;;;;;;5.53;0.75;;;5.90;99.90;;;;;;5088906;28;20044;-79
2022/12/07 13:26:32;;;;;;;6.72;0.80;;;6.00;99.90;;;;;;5089987;28;20048;-81
2022/12/07 13:29:22;;;;;;;11.88;1.77;;;6.00;99.90;;;;;;5072018;28;20048;-78
2022/12/07 13:32:26;;;;;;;10.63;1.60;;;6.10;99.90;;;;;;5072071;28;20161;-79
2022/12/07 13:35:37;;;;;;;9.45;1.55;;;6.10;99.90;;;;;;5074490;28;20102;-81
2022/12/07 13:38:26;;;;;;;12.10;1.52;;;6.10;99.90;;;;;;5058378;28;20446;-78
2022/12/07 13:41:16;;;;;;;14.20;1.55;;;6.10;99.90;;;;;;5074170;28;20460;-81
2022/12/07 13:44:14;;;;;;;11.55;2.13;;;6.10;99.90;;;;;;5089590;28;20063;-79
2022/12/07 13:47:15;;;;;;;15.02;1.50;;;6.10;99.90;;;;;;5076748;28;20539;-79
2022/12/07 13:50:20;;;;;;;8.23;1.58;;;6.00;99.90;;;;;;5080791;28;20063;-78
2022/12/07 13:53:12;;;;;;;5.15;1.10;;;6.00;99.90;;;;;;5094477;28;20089;-80
2022/12/07 13:56:00;;;;;;;9.32;1.40;;;6.00;99.90;;;;;;5093653;28;20036;-79
2022/12/07 13:58:46;;;;;;;12.93;1.55;;;6.00;99.90;;;;;;5093522;28;20512;-79
2022/12/07 14:01:33;;;;;;;12.52;2.00;;;5.90;99.90;;;;;;5077688;28;20438;-78
2022/12/07 14:04:37;;;;;;;19.35;4.05;;;5.80;99.90;;;;;;5095200;28;20050;-78
2022/12/07 14:07:27;;;;;;;15.52;2.70;;;5.60;99.90;;;;;;5080895;28;20084;-79
2022/12/07 14:10:34;;;;;;;10.20;1.58;;;5.30;99.90;;;;;;5093653;28;20048;-79
2022/12/07 14:13:58;;;;;;;6.60;1.00;;;4.90;99.90;;;;;;5075078;28;20101;-78
2022/12/07 14:17:00;;;;;;;7.70;1.00;;;4.80;99.90;;;;;;5093816;28;20047;-82
2022/12/07 14:19:57;;;;;;;4.15;1.00;;;4.90;99.90;;;;;;5094465;28;20048;-80
2022/12/07 14:22:55;;;;;;;2.95;0.68;;;5.00;99.90;;;;;;5063863;28;20058;-77
2022/12/07 14:25:49;;;;;;;7.97;1.02;;;5.00;99.90;;;;;;5093312;28;20051;-77
2022/12/07 14:28:37;;;;;;;7.65;1.15;;;5.00;99.90;;;;;;5093280;28;20044;-78
2022/12/07 14:31:25;;;;;;;7.25;0.80;;;4.90;99.90;;;;;;5092932;28;20048;-78
2022/12/07 14:34:14;;;;;;;5.97;0.70;;;4.90;99.90;;;;;;5074487;28;20044;-85
2022/12/07 14:37:00;;;;;;;3.67;0.98;;;4.90;99.90;;;;;;5093202;28;20048;-81
2022/12/07 14:39:46;;;;;;;6.47;0.70;;;4.90;99.90;;;;;;5093240;28;20063;-77
2022/12/07 14:42:34;;;;;;;5.30;0.82;;;4.90;99.90;;;;;;5094023;28;20048;-79
2022/12/07 14:45:22;;;;;;;5.05;0.80;;;4.80;99.90;;;;;;5092472;28;20410;-79
2022/12/07 14:48:14;;;;;;;6.03;0.70;;;4.70;99.90;;;;;;5073460;28;20127;-78
2022/12/07 14:51:01;;;;;;;9.18;1.08;;;4.60;99.90;;;;;;5078606;28;20044;-83
2022/12/07 14:53:50;;;;;;;11.85;1.20;;;4.60;99.90;;;;;;5092503;28;20052;-78
2022/12/07 14:56:36;;;;;;;7.75;1.25;;;4.50;99.90;;;;;;5076278;28;20052;-78
2022/12/07 14:59:23;;;;;;;7.70;1.17;;;4.50;99.90;;;;;;5091815;28;20059;-78
2022/12/07 15:02:13;;;;;;;7.07;1.05;;;4.40;99.90;;;;;;5070978;28;20077;-78